createdAt,value
2023-05-23T00:00:38.427Z,79.21
2023-05-23T00:03:08.993Z,79.36
2023-05-23T00:05:38.324Z,79.42
2023-05-23T00:08:06.990Z,79.67
2023-05-23T00:10:35.783Z,79.99
2023-05-23T00:13:03.702Z,79.90
2023-05-23T00:15:54.516Z,80.23
2023-05-23T00:18:24.944Z,80.49
2023-05-23T00:20:54.271Z,80.38
2023-05-23T00:23:23.203Z,80.58
2023-05-23T00:25:53.858Z,80.67
2023-05-23T00:28:22.585Z,80.70
2023-05-23T00:30:53.755Z,80.76
2023-05-23T00:33:31.872Z,80.85
2023-05-23T00:36:03.801Z,80.48
2023-05-23T00:38:33.372Z,80.34
2023-05-23T00:41:02.530Z,80.26
2023-05-23T00:43:31.673Z,80.42
2023-05-23T00:45:59.983Z,80.61
2023-05-23T00:48:30.359Z,80.81
2023-05-23T00:50:58.648Z,81.10
2023-05-23T00:53:31.590Z,80.98
2023-05-23T00:56:20.763Z,80.65
2023-05-23T00:59:03.324Z,80.51
2023-05-23T01:01:37.491Z,80.65
2023-05-23T01:04:06.972Z,80.40
2023-05-23T01:06:34.998Z,80.54
2023-05-23T01:09:08.421Z,80.66
2023-05-23T01:12:05.435Z,80.75
2023-05-23T01:15:05.394Z,80.79
2023-05-23T01:18:21.419Z,80.90
2023-05-23T01:21:19.413Z,80.93
2023-05-23T01:24:44.292Z,80.92
2023-05-23T01:28:08.379Z,80.89
2023-05-23T01:31:20.438Z,81.12
2023-05-23T01:34:10.860Z,81.16
2023-05-23T01:36:59.407Z,81.08
2023-05-23T01:39:49.460Z,80.94
2023-05-23T01:42:24.412Z,81.03
2023-05-23T01:44:59.471Z,81.20
2023-05-23T01:47:56.457Z,81.31
2023-05-23T01:50:52.763Z,81.37
2023-05-23T01:53:46.380Z,81.34
2023-05-23T01:56:21.989Z,81.19
2023-05-23T01:59:14.390Z,80.90
2023-05-23T02:02:32.552Z,80.90
2023-05-23T02:05:24.443Z,81.20
2023-05-23T02:15:40.241Z,80.88
2023-05-23T02:18:16.773Z,81.05
2023-05-23T02:20:45.575Z,81.29
2023-05-23T02:23:13.362Z,81.36
2023-05-23T02:25:46.532Z,81.39
2023-05-23T02:28:14.503Z,81.33
2023-05-23T02:30:44.595Z,81.52
2023-05-23T02:33:12.547Z,81.34
2023-05-23T02:35:41.610Z,81.41
2023-05-23T02:38:10.997Z,81.64
2023-05-23T02:40:42.163Z,82.12
2023-05-23T02:43:09.954Z,82.28
2023-05-23T02:53:54.413Z,82.64
2023-05-23T02:56:23.164Z,82.77
2023-05-23T02:58:52.244Z,82.83
2023-05-23T03:01:21.233Z,82.83
2023-05-23T03:03:50.842Z,83.23
2023-05-23T03:06:22.325Z,83.45
2023-05-23T03:08:54.833Z,83.94
2023-05-23T03:11:24.005Z,84.18
2023-05-23T03:13:53.018Z,84.57
2023-05-23T03:16:27.894Z,85.05
2023-05-23T03:19:04.396Z,85.66
2023-05-23T03:21:35.548Z,85.82
2023-05-23T03:24:04.821Z,86.05
2023-05-23T03:26:41.041Z,86.21
2023-05-23T03:29:11.124Z,86.53
2023-05-23T03:31:39.893Z,86.80
2023-05-23T03:34:12.594Z,87.04
2023-05-23T03:36:40.744Z,87.66
2023-05-23T03:39:28.418Z,88.44
2023-05-23T03:42:05.699Z,88.84
2023-05-23T03:44:34.583Z,89.17
2023-05-23T03:47:03.334Z,89.66
2023-05-23T03:49:31.163Z,90.04
2023-05-23T03:52:00.473Z,90.10
2023-05-23T03:54:28.400Z,90.06
2023-05-23T03:56:56.443Z,90.30
2023-05-23T03:59:25.961Z,90.60
2023-05-23T04:01:53.232Z,90.79
2023-05-23T04:04:21.093Z,90.75
2023-05-23T04:06:50.450Z,91.32
2023-05-23T04:09:19.691Z,91.54
2023-05-23T04:11:48.364Z,91.62
2023-05-23T04:14:17.323Z,91.87
2023-05-23T04:16:48.371Z,92.02
2023-05-23T04:19:18.880Z,92.18
2023-05-23T04:21:51.060Z,92.42
2023-05-23T04:24:18.850Z,92.14
2023-05-23T04:26:48.433Z,91.81
2023-05-23T04:29:23.547Z,91.10
2023-05-23T04:31:55.944Z,90.80
2023-05-23T04:34:24.580Z,90.02
2023-05-23T04:36:55.914Z,89.80
2023-05-23T04:39:26.563Z,89.47
2023-05-23T04:42:24.732Z,89.47
2023-05-23T04:45:12.159Z,89.48
2023-05-23T04:48:18.521Z,89.15
2023-05-23T04:51:08.056Z,89.21
2023-05-23T04:53:44.424Z,89.67
2023-05-23T04:56:15.528Z,89.95
2023-05-23T04:58:44.205Z,90.13
2023-05-23T05:01:16.463Z,90.23
2023-05-23T05:03:45.178Z,90.46
2023-05-23T05:06:16.995Z,90.24
2023-05-23T05:08:52.053Z,90.20
2023-05-23T05:11:21.813Z,90.31
2023-05-23T05:14:04.067Z,90.23
2023-05-23T05:16:34.190Z,90.35
2023-05-23T05:19:01.398Z,90.50
2023-05-23T05:21:28.399Z,90.44
2023-05-23T05:23:58.324Z,90.64
2023-05-23T05:26:26.469Z,90.52
2023-05-23T05:28:54.282Z,90.49
2023-05-23T05:31:23.806Z,90.48
2023-05-23T05:33:51.338Z,90.67
2023-05-23T05:36:19.291Z,90.93
2023-05-23T05:38:47.617Z,91.27
2023-05-23T05:41:15.727Z,91.36
2023-05-23T05:43:49.001Z,90.24
2023-05-23T05:46:17.043Z,90.35
2023-05-23T05:48:44.851Z,89.56
2023-05-23T05:51:13.411Z,89.15
2023-05-23T05:53:41.604Z,88.83
2023-05-23T05:56:09.786Z,88.08
2023-05-23T05:58:38.620Z,87.79
2023-05-23T06:01:09.314Z,87.32
2023-05-23T06:03:37.145Z,87.07
2023-05-23T06:06:04.503Z,87.37
2023-05-23T06:08:32.059Z,88.01
2023-05-23T06:11:00.562Z,88.59
2023-05-23T06:13:28.074Z,89.41
2023-05-23T06:15:56.426Z,89.94
2023-05-23T06:18:23.523Z,90.40
2023-05-23T06:20:51.192Z,90.40
2023-05-23T06:23:20.165Z,90.22
2023-05-23T06:25:47.478Z,90.14
2023-05-23T06:28:15.667Z,89.68
2023-05-23T06:30:43.607Z,89.69
2023-05-23T06:33:11.908Z,90.09
2023-05-23T06:35:40.219Z,90.21
2023-05-23T06:38:07.927Z,90.20
2023-05-23T06:40:35.942Z,89.73
2023-05-23T06:43:03.116Z,89.40
2023-05-23T06:45:53.593Z,89.43
2023-05-23T06:48:23.917Z,89.31
2023-05-23T06:50:51.299Z,89.47
2023-05-23T06:53:21.088Z,89.91
2023-05-23T06:55:49.168Z,90.31
2023-05-23T06:58:18.540Z,90.67
2023-05-23T07:00:45.459Z,90.95
2023-05-23T07:03:18.604Z,90.51
2023-05-23T07:05:45.918Z,90.70
2023-05-23T07:08:15.495Z,90.63
2023-05-23T07:10:51.301Z,90.54
2023-05-23T07:13:37.439Z,90.50
2023-05-23T07:16:05.240Z,90.69
2023-05-23T07:18:36.103Z,89.89
2023-05-23T07:21:04.793Z,90.06
2023-05-23T07:23:33.566Z,90.44
2023-05-23T07:26:03.151Z,90.66
2023-05-23T07:28:44.709Z,90.50
2023-05-23T07:31:13.000Z,90.65
2023-05-23T07:33:41.083Z,90.67
2023-05-23T07:36:10.170Z,90.80
2023-05-23T07:38:38.179Z,90.83
2023-05-23T07:41:19.664Z,90.62
2023-05-23T07:43:47.082Z,90.93
2023-05-23T07:46:14.848Z,90.79
2023-05-23T07:48:42.307Z,90.49
2023-05-23T07:59:03.292Z,89.81
2023-05-23T08:01:31.633Z,89.71
2023-05-23T08:04:04.593Z,89.36
2023-05-23T08:06:45.692Z,89.35
2023-05-23T08:09:22.936Z,89.37
2023-05-23T08:11:52.464Z,89.29
2023-05-23T08:14:21.991Z,89.28
2023-05-23T08:16:58.609Z,88.93
2023-05-23T08:19:27.316Z,89.09
2023-05-23T08:22:00.108Z,88.80
2023-05-23T08:24:56.259Z,88.70
2023-05-23T08:27:24.906Z,87.89
2023-05-23T08:29:56.485Z,87.66
2023-05-23T08:32:24.323Z,87.30
2023-05-23T08:34:52.082Z,86.75
2023-05-23T08:37:19.798Z,86.68
2023-05-23T08:39:47.514Z,86.43
2023-05-23T08:42:34.240Z,86.05
2023-05-23T08:45:05.442Z,85.76
2023-05-23T08:47:33.977Z,85.75
2023-05-23T08:50:07.911Z,85.93
2023-05-23T08:52:36.072Z,86.03
2023-05-23T08:55:04.149Z,86.14
2023-05-23T08:57:32.289Z,86.51
2023-05-23T09:00:14.868Z,86.81
2023-05-23T09:02:45.306Z,87.07
2023-05-23T09:05:27.022Z,87.39
2023-05-23T09:07:55.471Z,87.50
2023-05-23T09:10:23.641Z,87.81
2023-05-23T09:12:51.368Z,87.75
2023-05-23T09:15:20.320Z,87.75
2023-05-23T09:17:48.559Z,87.75
2023-05-23T09:20:17.384Z,87.97
2023-05-23T09:22:51.030Z,88.12
2023-05-23T09:25:19.119Z,88.46
2023-05-23T09:27:48.241Z,88.68
2023-05-23T09:30:16.660Z,88.87
2023-05-23T09:32:44.882Z,88.39
2023-05-23T09:35:14.542Z,87.62
2023-05-23T09:37:46.182Z,86.68
2023-05-23T09:40:15.035Z,85.77
2023-05-23T09:42:53.702Z,85.44
2023-05-23T09:45:21.624Z,85.22
2023-05-23T09:47:52.051Z,84.83
2023-05-23T09:50:21.128Z,84.67
2023-05-23T09:53:02.071Z,84.14
2023-05-23T09:55:29.799Z,83.97
2023-05-23T09:57:57.613Z,83.65
2023-05-23T10:00:25.939Z,83.39
2023-05-23T10:03:14.378Z,83.25
2023-05-23T10:05:53.533Z,83.19
2023-05-23T10:08:28.492Z,83.37
2023-05-23T10:11:14.782Z,83.26
2023-05-23T10:13:46.913Z,83.13
2023-05-23T10:16:27.394Z,83.13
2023-05-23T10:19:01.563Z,83.62
2023-05-23T10:21:46.412Z,82.94
2023-05-23T10:24:14.686Z,82.26
2023-05-23T10:26:42.334Z,82.43
2023-05-23T10:29:09.981Z,82.36
2023-05-23T10:31:37.847Z,82.09
2023-05-23T10:34:28.820Z,82.27
2023-05-23T10:37:01.753Z,82.07
2023-05-23T10:39:48.151Z,81.84
2023-05-23T10:42:50.281Z,81.79
2023-05-23T10:45:18.720Z,81.99
2023-05-23T10:47:50.454Z,81.32
2023-05-23T10:50:36.160Z,81.55
2023-05-23T10:53:05.309Z,81.29
2023-05-23T10:55:36.750Z,80.45
2023-05-23T10:58:19.183Z,80.22
2023-05-23T11:00:54.478Z,80.71
2023-05-23T11:03:34.059Z,81.19
2023-05-23T11:06:03.078Z,81.13
2023-05-23T11:11:13.109Z,81.02
2023-05-23T11:13:53.463Z,80.96
2023-05-23T11:16:25.780Z,80.88
2023-05-23T11:19:14.118Z,80.78
2023-05-23T11:21:41.927Z,80.72
2023-05-23T11:24:10.364Z,80.27
2023-05-23T11:26:38.152Z,79.77
2023-05-23T11:29:09.543Z,79.90
2023-05-23T11:31:38.537Z,79.67
2023-05-23T11:34:07.084Z,79.99
2023-05-23T11:36:35.388Z,80.40
2023-05-23T11:39:06.378Z,80.69
2023-05-23T11:41:35.987Z,79.97
2023-05-23T11:44:11.548Z,79.71
2023-05-23T11:46:40.734Z,79.59
2023-05-23T11:49:12.263Z,79.56
2023-05-23T11:51:40.642Z,79.76
2023-05-23T11:54:08.509Z,79.51
2023-05-23T11:56:40.872Z,78.58
2023-05-23T11:59:08.779Z,78.91
2023-05-23T12:01:37.495Z,79.06
2023-05-23T12:04:10.967Z,79.01
2023-05-23T12:06:42.041Z,79.13
2023-05-23T12:09:13.164Z,79.24
2023-05-23T12:11:41.736Z,79.21
2023-05-23T12:14:10.015Z,78.52
2023-05-23T12:16:37.860Z,78.17
2023-05-23T12:19:07.455Z,77.29
2023-05-23T12:21:48.994Z,77.49
2023-05-23T12:24:23.273Z,77.95
2023-05-23T12:26:55.467Z,77.89
2023-05-23T12:29:30.341Z,77.58
2023-05-23T12:32:00.314Z,77.37
2023-05-23T12:34:28.517Z,76.86
2023-05-23T12:37:10.457Z,76.95
2023-05-23T12:39:45.795Z,76.30
2023-05-23T12:42:13.563Z,75.76
2023-05-23T12:44:44.289Z,75.35
2023-05-23T12:47:12.142Z,73.57
2023-05-23T12:49:39.895Z,72.64
2023-05-23T12:52:07.576Z,72.56
2023-05-23T12:54:35.298Z,72.90
2023-05-23T12:57:03.007Z,73.17
2023-05-23T12:59:30.852Z,73.22
2023-05-23T13:01:59.987Z,73.58
2023-05-23T13:04:30.165Z,73.92
2023-05-23T13:06:59.763Z,73.35
2023-05-23T13:09:27.551Z,73.44
2023-05-23T13:11:55.191Z,73.58
2023-05-23T13:14:22.954Z,73.56
2023-05-23T13:16:50.906Z,73.46
2023-05-23T13:19:18.893Z,73.48
2023-05-23T13:21:49.373Z,73.82
2023-05-23T13:24:18.061Z,73.85
2023-05-23T13:26:45.798Z,73.52
2023-05-23T13:29:13.778Z,73.27
2023-05-23T13:31:41.615Z,72.87
2023-05-23T13:34:09.512Z,72.95
2023-05-23T13:36:37.296Z,72.87
2023-05-23T13:39:08.131Z,72.93
2023-05-23T13:41:36.922Z,72.52
2023-05-23T13:44:05.507Z,71.32
2023-05-23T13:46:33.180Z,71.22
2023-05-23T13:49:01.529Z,71.64
2023-05-23T13:51:29.572Z,71.99
2023-05-23T13:53:57.461Z,71.97
2023-05-23T13:56:25.613Z,72.02
2023-05-23T13:58:53.359Z,72.00
2023-05-23T14:01:21.163Z,72.03
2023-05-23T14:03:49.104Z,71.84
2023-05-23T14:06:16.994Z,72.03
2023-05-23T14:08:44.658Z,72.05
2023-05-23T14:11:12.714Z,71.58
2023-05-23T14:13:41.114Z,71.16
2023-05-23T14:16:09.110Z,71.28
2023-05-23T14:18:37.456Z,70.94
2023-05-23T14:21:05.324Z,70.69
2023-05-23T14:23:33.093Z,69.80
2023-05-23T14:26:00.902Z,69.62
2023-05-23T14:28:28.959Z,69.87
2023-05-23T14:30:56.948Z,70.27
2023-05-23T14:33:25.220Z,70.92
2023-05-23T14:35:53.056Z,71.38
2023-05-23T14:38:20.746Z,72.04
2023-05-23T14:40:49.056Z,72.72
2023-05-23T14:43:16.867Z,73.55
2023-05-23T14:45:45.027Z,74.86
2023-05-23T14:48:13.195Z,76.02
2023-05-23T14:50:41.008Z,76.68
2023-05-23T14:53:08.704Z,76.31
2023-05-23T14:55:36.500Z,75.86
2023-05-23T14:58:05.916Z,74.63
2023-05-23T15:00:33.598Z,74.24
2023-05-23T15:03:01.717Z,74.96
2023-05-23T15:05:30.277Z,75.17
2023-05-23T15:07:58.033Z,75.25
2023-05-23T15:10:25.772Z,75.61
2023-05-23T15:12:53.630Z,76.14
2023-05-23T15:15:23.498Z,76.66
2023-05-23T15:17:51.356Z,76.84
2023-05-23T15:20:19.242Z,76.63
2023-05-23T15:22:47.606Z,76.81
2023-05-23T15:25:15.404Z,77.01
2023-05-23T15:27:45.516Z,77.25
2023-05-23T15:30:15.285Z,78.02
2023-05-23T15:32:43.263Z,78.78
2023-05-23T15:35:11.141Z,79.09
2023-05-23T15:37:38.933Z,79.31
2023-05-23T15:40:07.706Z,79.80
2023-05-23T15:42:36.193Z,80.22
2023-05-23T15:45:05.588Z,81.17
2023-05-23T15:47:34.729Z,81.71
2023-05-23T15:50:03.793Z,82.24
2023-05-23T15:52:31.626Z,82.87
2023-05-23T15:54:59.397Z,83.08
2023-05-23T15:57:27.811Z,83.08
2023-05-23T15:59:58.085Z,83.37
2023-05-23T16:02:30.312Z,83.64
2023-05-23T16:04:58.865Z,83.89
2023-05-23T16:07:29.675Z,84.37
2023-05-23T16:09:59.732Z,84.88
2023-05-23T16:12:32.129Z,84.93
2023-05-23T16:15:00.308Z,85.07
2023-05-23T16:17:28.136Z,85.12
2023-05-23T16:20:04.617Z,84.59
2023-05-23T16:22:33.101Z,84.10
2023-05-23T16:25:01.351Z,83.78
2023-05-23T16:27:29.007Z,83.86
2023-05-23T16:29:58.387Z,84.12
2023-05-23T16:32:29.124Z,84.59
2023-05-23T16:34:58.239Z,84.75
2023-05-23T16:37:26.079Z,85.07
2023-05-23T16:39:53.696Z,85.33
2023-05-23T16:42:23.862Z,86.02
2023-05-23T16:44:52.334Z,86.53
2023-05-23T16:47:20.231Z,86.81
2023-05-23T16:49:48.254Z,87.24
2023-05-23T16:52:18.623Z,87.81
2023-05-23T16:54:50.512Z,88.29
2023-05-23T16:57:18.978Z,88.63
2023-05-23T16:59:47.182Z,88.74
2023-05-23T17:02:16.263Z,89.05
2023-05-23T17:04:46.133Z,89.30
2023-05-23T17:07:17.733Z,89.42
2023-05-23T17:09:45.386Z,89.31
2023-05-23T17:12:15.762Z,89.10
2023-05-23T17:14:44.216Z,89.20
2023-05-23T17:17:15.194Z,89.24
2023-05-23T17:19:43.426Z,89.15
2023-05-23T17:22:15.468Z,89.14
2023-05-23T17:24:45.277Z,89.14
2023-05-23T17:27:15.757Z,89.34
2023-05-23T17:29:43.912Z,89.32
2023-05-23T17:32:28.322Z,89.54
2023-05-23T17:34:56.708Z,90.05
2023-05-23T17:37:28.500Z,90.30
2023-05-23T17:40:32.194Z,90.53
2023-05-23T17:43:02.631Z,90.99
2023-05-23T17:45:32.037Z,91.41
2023-05-23T17:48:03.654Z,91.55
2023-05-23T17:50:35.327Z,91.67
2023-05-23T17:53:05.468Z,91.66
2023-05-23T17:55:34.632Z,91.32
2023-05-23T17:58:03.828Z,91.23
2023-05-23T18:00:36.854Z,91.29
2023-05-23T18:03:29.627Z,91.07
2023-05-23T18:06:06.380Z,90.98
2023-05-23T18:08:52.899Z,90.80
2023-05-23T18:11:21.888Z,90.69
2023-05-23T18:13:50.988Z,90.72
2023-05-23T18:16:22.468Z,90.70
2023-05-23T18:18:51.741Z,90.68
2023-05-23T18:21:20.697Z,90.38
2023-05-23T18:23:58.385Z,90.24
2023-05-23T18:26:28.751Z,90.44
2023-05-23T18:28:57.323Z,90.79
2023-05-23T18:31:29.027Z,90.74
2023-05-23T18:33:58.345Z,90.70
2023-05-23T18:36:33.746Z,90.73
2023-05-23T18:39:02.862Z,90.93
2023-05-23T18:41:34.081Z,91.30
2023-05-23T18:44:05.377Z,91.66
2023-05-23T18:46:41.600Z,91.62
2023-05-23T18:49:11.771Z,91.48
2023-05-23T18:51:42.595Z,91.27
2023-05-23T18:54:10.231Z,90.76
2023-05-23T18:56:40.324Z,90.72
2023-05-23T18:59:18.591Z,90.40
2023-05-23T19:01:48.274Z,90.37
2023-05-23T19:04:16.291Z,90.96
2023-05-23T19:06:47.588Z,91.25
2023-05-23T19:09:15.226Z,91.56
2023-05-23T19:11:43.649Z,91.52
2023-05-23T19:14:11.356Z,91.69
2023-05-23T19:16:40.466Z,91.94
2023-05-23T19:19:09.090Z,91.94
2023-05-23T19:21:37.630Z,91.91
2023-05-23T19:24:07.686Z,92.07
2023-05-23T19:26:36.233Z,91.96
2023-05-23T19:29:03.929Z,92.11
2023-05-23T19:31:34.213Z,92.12
2023-05-23T19:34:06.424Z,92.44
2023-05-23T19:36:36.603Z,92.60
2023-05-23T19:39:05.449Z,92.90
2023-05-23T19:41:34.078Z,93.46
2023-05-23T19:44:05.372Z,93.63
2023-05-23T19:46:33.827Z,93.58
2023-05-23T19:49:01.711Z,93.57
2023-05-23T19:51:29.906Z,93.88
2023-05-23T19:53:57.675Z,94.20
2023-05-23T19:56:26.314Z,94.25
2023-05-23T19:58:54.031Z,94.06
2023-05-23T20:01:22.160Z,94.16
2023-05-23T20:03:49.915Z,94.13
2023-05-23T20:06:17.667Z,94.17
2023-05-23T20:08:45.331Z,94.18
2023-05-23T20:11:13.009Z,94.31
2023-05-23T20:13:40.778Z,94.50
2023-05-23T20:16:08.555Z,94.38
2023-05-23T20:18:36.622Z,94.41
2023-05-23T20:21:05.478Z,94.33
2023-05-23T20:23:33.350Z,94.30
2023-05-23T20:26:01.244Z,94.36
2023-05-23T20:28:29.078Z,94.40
2023-05-23T20:30:56.978Z,94.45
2023-05-23T20:33:25.145Z,94.33
2023-05-23T20:35:54.210Z,94.49
2023-05-23T20:38:21.984Z,94.45
2023-05-23T20:40:52.245Z,94.47
2023-05-23T20:43:22.441Z,94.41
2023-05-23T20:45:50.649Z,94.34
2023-05-23T20:48:18.372Z,94.36
2023-05-23T20:50:46.526Z,94.13
2023-05-23T20:53:14.350Z,93.97
2023-05-23T20:55:42.726Z,93.97
2023-05-23T20:58:10.791Z,94.14
2023-05-23T21:00:38.634Z,93.94
2023-05-23T21:03:06.473Z,93.88
2023-05-23T21:05:34.184Z,94.02
2023-05-23T21:08:01.989Z,94.06
2023-05-23T21:10:30.230Z,94.12
2023-05-23T21:12:58.200Z,93.90
2023-05-23T21:15:26.484Z,94.07
2023-05-23T21:17:54.392Z,94.12
2023-05-23T21:20:22.117Z,93.83
2023-05-23T21:22:49.882Z,94.14
2023-05-23T21:25:17.703Z,94.08
2023-05-23T21:27:45.750Z,93.69
2023-05-23T21:30:15.328Z,93.37
2023-05-23T21:32:43.791Z,93.13
2023-05-23T21:35:11.561Z,92.82
2023-05-23T21:37:39.519Z,92.61
2023-05-23T21:40:07.776Z,92.32
2023-05-23T21:42:35.855Z,92.22
2023-05-23T21:45:03.977Z,91.97
2023-05-23T21:47:31.763Z,91.81
2023-05-23T21:49:59.589Z,91.32
2023-05-23T21:52:27.434Z,91.27
2023-05-23T21:54:56.352Z,91.12
2023-05-23T21:57:24.542Z,91.05
2023-05-23T21:59:52.399Z,91.08
2023-05-23T22:02:20.296Z,90.89
2023-05-23T22:04:48.056Z,90.68
2023-05-23T22:07:15.940Z,90.46
2023-05-23T22:09:43.573Z,90.63
2023-05-23T22:12:12.134Z,90.63
2023-05-23T22:14:39.938Z,90.78
2023-05-23T22:17:08.270Z,90.81
2023-05-23T22:19:36.728Z,90.91
2023-05-23T22:22:04.745Z,91.10
2023-05-23T22:24:32.360Z,91.24
2023-05-23T22:27:00.966Z,91.28
2023-05-23T22:29:28.782Z,91.49
2023-05-23T22:31:56.898Z,91.34
2023-05-23T22:34:24.669Z,91.30
2023-05-23T22:36:52.433Z,91.10
2023-05-23T22:39:20.102Z,91.07
2023-05-23T22:41:47.941Z,91.15
2023-05-23T22:44:15.692Z,91.16
2023-05-23T22:46:44.012Z,91.41
2023-05-23T22:49:11.770Z,91.54
2023-05-23T22:51:40.252Z,91.77
2023-05-23T22:54:08.034Z,92.05
2023-05-23T22:56:36.454Z,92.20
2023-05-23T22:59:04.833Z,92.29
2023-05-23T23:01:33.874Z,92.24
2023-05-23T23:04:01.641Z,92.28
2023-05-23T23:06:29.472Z,92.16
2023-05-23T23:08:57.209Z,92.23
2023-05-23T23:11:24.929Z,92.06
2023-05-23T23:13:52.601Z,91.98
2023-05-23T23:16:21.253Z,91.89
2023-05-23T23:18:49.246Z,91.82
2023-05-23T23:21:17.220Z,91.80
2023-05-23T23:23:44.922Z,91.64
2023-05-23T23:26:12.699Z,91.52
2023-05-23T23:28:40.600Z,91.42
2023-05-23T23:31:08.357Z,91.45
2023-05-23T23:33:36.224Z,91.41
2023-05-23T23:36:04.140Z,91.41
2023-05-23T23:38:31.818Z,91.24
2023-05-23T23:40:59.576Z,91.20
2023-05-23T23:43:27.772Z,91.35
2023-05-23T23:45:55.684Z,91.12
2023-05-23T23:48:23.406Z,91.19
2023-05-23T23:50:51.127Z,91.17
2023-05-23T23:53:21.497Z,91.23
2023-05-23T23:55:49.405Z,91.32
2023-05-23T23:58:17.510Z,91.33
